KCUB/CUB METAR and TAF weather

Enter ICAO airport designator
Station Type Date Time Source
KCUB METAR 2019/02/23 17:04 UTC NOAA

KCUB 231704Z AUTO 07004KT 4SM BR OVC005 08/07 A3024 RMK AO2 T00830067


Station Type Date Time Source
KCUB Decoded METAR 2019/02/23 17:04 UTC NOAA

OWENS DOWNTOWN AIRPORT, SC, United States (KCUB) 33-58N 081-00W 56M
Feb 23, 2019 - 12:04 PM EST / 2019.02.23 1704 UTC
Wind: from the ENE (070 degrees) at 5 MPH (4 KT):0
Visibility: 4 mile(s):0
Sky conditions: overcast
Weather: mist
Temperature: 46.9 F (8.3 C)
Dew Point: 44.1 F (6.7 C)
Relative Humidity: 89%
Pressure (altimeter): 30.24 in. Hg (1024 hPa)
ob: KCUB 231704Z AUTO 07004KT 4SM BR OVC005 08/07 A3024 RMK AO2 T00830067
cycle: 17

Station Type Date Time Source
KCUB TAF 2019/02/23 14:09 UTC NOAA

TAF
AMD KCUB 231406Z 2314/2412 06004KT 6SM -DZ BR OVC006
FM232200 05003KT 2SM -DZ BR OVC003 WS020/20032KT
FM240600 10004KT 1/2SM FG VV003 WS020/23042KT


Example: see airport list